ASX221 LSZH-EDDH
Flight info
| Callsign | ASX221 |
|---|---|
| Flight time | N/A |
| Altitude | 38000 |
| Route | DEGES Z1 ETAGO DCT HAREM DCT LOHRE DCT MASEK DCT ELNAT P605 NOLGO NOLGO6A |
| Aircraft | A320/M-SDE3FGHIRWY/LB1 |
Departure
| Time | N/A |
|---|---|
| Airport | Zürich Airport (LSZH) |
Arrival
| Time | 2026-05-07 21:49 |
|---|---|
| Airport | Hamburg Helmut Schmidt Airport (EDDH) |
| Time | Latitude | Longitude | Altitude | Speed | Heading |
|---|---|---|---|---|---|
| 2026-05-07 21:07 | 50.99084 | 9.67258 | 38134 ft | 455 kts | 1° |
| 2026-05-07 21:07 | 51.02243 | 9.67530 | 38132 ft | 455 kts | 1° |
| 2026-05-07 21:08 | 51.08556 | 9.68086 | 38133 ft | 455 kts | 2° |
| 2026-05-07 21:08 | 51.14855 | 9.69175 | 38132 ft | 456 kts | 6° |
| 2026-05-07 21:09 | 51.21122 | 9.70758 | 38135 ft | 456 kts | 7° |
| 2026-05-07 21:09 | 51.27350 | 9.72322 | 38136 ft | 456 kts | 6° |
| 2026-05-07 21:10 | 51.33625 | 9.73743 | 38141 ft | 455 kts | 6° |
| 2026-05-07 21:10 | 51.39907 | 9.75095 | 38140 ft | 455 kts | 6° |
| 2026-05-07 21:11 | 51.46183 | 9.76486 | 38149 ft | 455 kts | 6° |
| 2026-05-07 21:11 | 51.55590 | 9.78641 | 38139 ft | 455 kts | 6° |
| 2026-05-07 21:12 | 51.61862 | 9.80069 | 38141 ft | 455 kts | 6° |
| 2026-05-07 21:12 | 51.64999 | 9.80786 | 37927 ft | 456 kts | 6° |
| 2026-05-07 21:12 | 51.68128 | 9.81504 | 37471 ft | 454 kts | 6° |
| 2026-05-07 21:13 | 51.71261 | 9.82226 | 37022 ft | 453 kts | 6° |
| 2026-05-07 21:13 | 51.74378 | 9.82941 | 36585 ft | 452 kts | 6° |
| 2026-05-07 21:13 | 51.77489 | 9.83651 | 36154 ft | 451 kts | 6° |
| 2026-05-07 21:13 | 51.79543 | 9.84118 | 35876 ft | 450 kts | 6° |
| 2026-05-07 21:14 | 51.82642 | 9.84823 | 35457 ft | 449 kts | 6° |
| 2026-05-07 21:14 | 51.85736 | 9.85529 | 35047 ft | 448 kts | 7° |
| 2026-05-07 21:14 | 51.88820 | 9.86237 | 34652 ft | 448 kts | 7° |
| 2026-05-07 21:14 | 51.91899 | 9.86947 | 34254 ft | 447 kts | 7° |
| 2026-05-07 21:15 | 51.94974 | 9.87661 | 33803 ft | 446 kts | 7° |
| 2026-05-07 21:15 | 51.98049 | 9.88374 | 33336 ft | 446 kts | 7° |
| 2026-05-07 21:15 | 52.01117 | 9.89083 | 32873 ft | 445 kts | 7° |
| 2026-05-07 21:15 | 52.04172 | 9.89790 | 32417 ft | 442 kts | 7° |
| 2026-05-07 21:16 | 52.07208 | 9.90493 | 31971 ft | 439 kts | 7° |
| 2026-05-07 21:16 | 52.10219 | 9.91188 | 31529 ft | 436 kts | 7° |
| 2026-05-07 21:16 | 52.13205 | 9.91881 | 31100 ft | 433 kts | 7° |
| 2026-05-07 21:16 | 52.16178 | 9.92571 | 30672 ft | 430 kts | 7° |
| 2026-05-07 21:17 | 52.19127 | 9.93258 | 30255 ft | 427 kts | 7° |
| 2026-05-07 21:17 | 52.22054 | 9.93947 | 29767 ft | 424 kts | 7° |
| 2026-05-07 21:17 | 52.24923 | 9.94623 | 29280 ft | 421 kts | 7° |
| 2026-05-07 21:17 | 52.27818 | 9.95304 | 28804 ft | 418 kts | 7° |
| 2026-05-07 21:18 | 52.30689 | 9.95977 | 28331 ft | 416 kts | 7° |
| 2026-05-07 21:18 | 52.33541 | 9.96644 | 27869 ft | 413 kts | 7° |
| 2026-05-07 21:18 | 52.36377 | 9.97308 | 27423 ft | 411 kts | 7° |
| 2026-05-07 21:18 | 52.39201 | 9.97971 | 26973 ft | 409 kts | 7° |
| 2026-05-07 21:19 | 52.42011 | 9.98631 | 26529 ft | 406 kts | 7° |
| 2026-05-07 21:19 | 52.44799 | 9.99287 | 26097 ft | 404 kts | 7° |
| 2026-05-07 21:19 | 52.47576 | 9.99944 | 25670 ft | 402 kts | 7° |
| 2026-05-07 21:19 | 52.50337 | 10.00599 | 25267 ft | 400 kts | 7° |
| 2026-05-07 21:20 | 52.53086 | 10.01253 | 25042 ft | 399 kts | 7° |
| 2026-05-07 21:20 | 52.55814 | 10.02005 | 24797 ft | 398 kts | 12° |
| 2026-05-07 21:20 | 52.58487 | 10.03169 | 24555 ft | 397 kts | 14° |
| 2026-05-07 21:20 | 52.61152 | 10.04355 | 24323 ft | 396 kts | 14° |
| 2026-05-07 21:21 | 52.63804 | 10.05537 | 24085 ft | 394 kts | 14° |
| 2026-05-07 21:21 | 52.66445 | 10.06718 | 23848 ft | 393 kts | 14° |
| 2026-05-07 21:21 | 52.69089 | 10.07903 | 23593 ft | 392 kts | 14° |
| 2026-05-07 21:21 | 52.71718 | 10.09085 | 23318 ft | 391 kts | 14° |
| 2026-05-07 21:22 | 52.74336 | 10.10267 | 23033 ft | 389 kts | 14° |
| 2026-05-07 21:22 | 52.76950 | 10.11383 | 22758 ft | 387 kts | 9° |
| 2026-05-07 21:22 | 52.79603 | 10.11867 | 22444 ft | 380 kts | 0° |
| 2026-05-07 21:22 | 52.82234 | 10.11950 | 21996 ft | 376 kts | 360° |
| 2026-05-07 21:23 | 52.84800 | 10.12029 | 21535 ft | 373 kts | 0° |
| 2026-05-07 21:23 | 52.87387 | 10.12112 | 21078 ft | 370 kts | 0° |
| 2026-05-07 21:23 | 52.89948 | 10.12196 | 20604 ft | 367 kts | 0° |
| 2026-05-07 21:23 | 52.92493 | 10.12278 | 20138 ft | 365 kts | 0° |
| 2026-05-07 21:24 | 52.95025 | 10.12359 | 19662 ft | 363 kts | 0° |
| 2026-05-07 21:24 | 52.97547 | 10.12437 | 19176 ft | 362 kts | 0° |
| 2026-05-07 21:24 | 53.00058 | 10.12519 | 18709 ft | 361 kts | 0° |
| 2026-05-07 21:24 | 53.02562 | 10.12600 | 18211 ft | 360 kts | 0° |
| 2026-05-07 21:25 | 53.05063 | 10.12683 | 17714 ft | 358 kts | 0° |
| 2026-05-07 21:25 | 53.07541 | 10.12769 | 17249 ft | 355 kts | 0° |
| 2026-05-07 21:25 | 53.10002 | 10.12853 | 16787 ft | 353 kts | 0° |
| 2026-05-07 21:25 | 53.12447 | 10.12940 | 16331 ft | 350 kts | 0° |
| 2026-05-07 21:26 | 53.14879 | 10.13023 | 15882 ft | 349 kts | 0° |
| 2026-05-07 21:26 | 53.17297 | 10.13102 | 15435 ft | 347 kts | 0° |
| 2026-05-07 21:26 | 53.19705 | 10.13180 | 14986 ft | 345 kts | 0° |
| 2026-05-07 21:26 | 53.22099 | 10.13259 | 14541 ft | 344 kts | 1° |
| 2026-05-07 21:27 | 53.24484 | 10.13340 | 14098 ft | 342 kts | 1° |
| 2026-05-07 21:27 | 53.26863 | 10.13418 | 13617 ft | 340 kts | 1° |
| 2026-05-07 21:27 | 53.29183 | 10.13495 | 13154 ft | 326 kts | 1° |
| 2026-05-07 21:27 | 53.31404 | 10.13568 | 12731 ft | 315 kts | 1° |
| 2026-05-07 21:28 | 53.33593 | 10.13639 | 12291 ft | 314 kts | 1° |
| 2026-05-07 21:28 | 53.35775 | 10.13706 | 11864 ft | 313 kts | 359° |
| 2026-05-07 21:28 | 53.37934 | 10.13271 | 11433 ft | 312 kts | 346° |
| 2026-05-07 21:28 | 53.39958 | 10.11986 | 10996 ft | 312 kts | 332° |
| 2026-05-07 21:29 | 53.41762 | 10.09891 | 10623 ft | 318 kts | 318° |
| 2026-05-07 21:29 | 53.43260 | 10.07237 | 10340 ft | 304 kts | 312° |
| 2026-05-07 21:29 | 53.44638 | 10.04662 | 9925 ft | 291 kts | 312° |
| 2026-05-07 21:29 | 53.45986 | 10.02161 | 9775 ft | 289 kts | 313° |
| 2026-05-07 21:30 | 53.47329 | 9.99676 | 9638 ft | 283 kts | 313° |
| 2026-05-07 21:30 | 53.48416 | 9.97075 | 9489 ft | 263 kts | 292° |
| 2026-05-07 21:30 | 53.48755 | 9.94136 | 9359 ft | 256 kts | 267° |
| 2026-05-07 21:30 | 53.48346 | 9.91307 | 9230 ft | 253 kts | 242° |
| 2026-05-07 21:31 | 53.47322 | 9.88920 | 9090 ft | 253 kts | 229° |
| 2026-05-07 21:31 | 53.46189 | 9.86657 | 8971 ft | 253 kts | 229° |
| 2026-05-07 21:31 | 53.45058 | 9.84400 | 8892 ft | 253 kts | 230° |
| 2026-05-07 21:31 | 53.43927 | 9.82137 | 8748 ft | 253 kts | 230° |
| 2026-05-07 21:32 | 53.42800 | 9.79878 | 8559 ft | 252 kts | 230° |
| 2026-05-07 21:32 | 53.41674 | 9.77621 | 8392 ft | 252 kts | 230° |
| 2026-05-07 21:32 | 53.40549 | 9.75369 | 8227 ft | 252 kts | 230° |
| 2026-05-07 21:32 | 53.39425 | 9.73121 | 8053 ft | 251 kts | 230° |
| 2026-05-07 21:33 | 53.38304 | 9.70878 | 7895 ft | 251 kts | 230° |
| 2026-05-07 21:33 | 53.37181 | 9.68637 | 7719 ft | 251 kts | 229° |
| 2026-05-07 21:33 | 53.36058 | 9.66403 | 7563 ft | 251 kts | 229° |
| 2026-05-07 21:33 | 53.34938 | 9.64173 | 7396 ft | 250 kts | 229° |
| 2026-05-07 21:34 | 53.33819 | 9.61943 | 7228 ft | 250 kts | 229° |
| 2026-05-07 21:34 | 53.32700 | 9.59721 | 7060 ft | 250 kts | 229° |
| 2026-05-07 21:34 | 53.31583 | 9.57504 | 6872 ft | 249 kts | 229° |
| 2026-05-07 21:34 | 53.30537 | 9.55200 | 6672 ft | 249 kts | 244° |
| 2026-05-07 21:35 | 53.30144 | 9.52424 | 6498 ft | 247 kts | 274° |
| 2026-05-07 21:35 | 53.30592 | 9.49701 | 6295 ft | 243 kts | 303° |
| 2026-05-07 21:35 | 53.31716 | 9.47644 | 6104 ft | 241 kts | 323° |
| 2026-05-07 21:35 | 53.33029 | 9.45904 | 5901 ft | 239 kts | 333° |
| 2026-05-07 21:36 | 53.34580 | 9.45097 | 5658 ft | 233 kts | 2° |
| 2026-05-07 21:36 | 53.36116 | 9.45637 | 5435 ft | 225 kts | 30° |
| 2026-05-07 21:36 | 53.37311 | 9.47275 | 5256 ft | 224 kts | 52° |
| 2026-05-07 21:36 | 53.38363 | 9.49406 | 5104 ft | 247 kts | 52° |
| 2026-05-07 21:37 | 53.39445 | 9.51571 | 4913 ft | 234 kts | 51° |
| 2026-05-07 21:37 | 53.40473 | 9.53611 | 4746 ft | 226 kts | 51° |
| 2026-05-07 21:37 | 53.41483 | 9.55616 | 4595 ft | 224 kts | 52° |
| 2026-05-07 21:37 | 53.42206 | 9.57052 | 4479 ft | 224 kts | 52° |
| 2026-05-07 21:40 | 53.42344 | 9.57329 | 4474 ft | 223 kts | 52° |
| 2026-05-07 21:40 | 53.43345 | 9.59321 | 4323 ft | 223 kts | 51° |
| 2026-05-07 21:41 | 53.44334 | 9.61286 | 4194 ft | 222 kts | 52° |
| 2026-05-07 21:41 | 53.44998 | 9.62608 | 4097 ft | 222 kts | 52° |
| 2026-05-07 21:43 | 53.45536 | 9.63679 | 4008 ft | 222 kts | 52° |
| 2026-05-07 21:43 | 53.46525 | 9.65655 | 3871 ft | 222 kts | 52° |
| 2026-05-07 21:43 | 53.47516 | 9.67632 | 3727 ft | 221 kts | 52° |
| 2026-05-07 21:43 | 53.48503 | 9.69604 | 3584 ft | 221 kts | 52° |
| 2026-05-07 21:44 | 53.49489 | 9.71575 | 3438 ft | 220 kts | 52° |
| 2026-05-07 21:44 | 53.50456 | 9.73509 | 3291 ft | 212 kts | 52° |
| 2026-05-07 21:44 | 53.51384 | 9.75367 | 3159 ft | 203 kts | 52° |
| 2026-05-07 21:44 | 53.52264 | 9.77129 | 3074 ft | 191 kts | 52° |
| 2026-05-07 21:45 | 53.53085 | 9.78773 | 2838 ft | 176 kts | 53° |
| 2026-05-07 21:45 | 53.53843 | 9.80295 | 2591 ft | 163 kts | 53° |
| 2026-05-07 21:45 | 53.54540 | 9.81693 | 2389 ft | 149 kts | 53° |
| 2026-05-07 21:45 | 53.55177 | 9.82973 | 2204 ft | 139 kts | 54° |
| 2026-05-07 21:46 | 53.55784 | 9.84195 | 2015 ft | 135 kts | 54° |
| 2026-05-07 21:46 | 53.56382 | 9.85397 | 1832 ft | 133 kts | 54° |
| 2026-05-07 21:46 | 53.56974 | 9.86590 | 1646 ft | 133 kts | 53° |
| 2026-05-07 21:46 | 53.57565 | 9.87779 | 1466 ft | 132 kts | 53° |
| 2026-05-07 21:47 | 53.58156 | 9.88969 | 1282 ft | 132 kts | 52° |
| 2026-05-07 21:47 | 53.58743 | 9.90155 | 1107 ft | 131 kts | 54° |
| 2026-05-07 21:47 | 53.59323 | 9.91331 | 928 ft | 130 kts | 54° |
| 2026-05-07 21:47 | 53.59892 | 9.92505 | 715 ft | 130 kts | 53° |
| 2026-05-07 21:48 | 53.60471 | 9.93670 | 549 ft | 130 kts | 51° |
| 2026-05-07 21:48 | 53.61072 | 9.94811 | 379 ft | 131 kts | 52° |
| 2026-05-07 21:48 | 53.61641 | 9.95991 | 184 ft | 128 kts | 52° |
| 2026-05-07 21:48 | 53.62208 | 9.97136 | 86 ft | 126 kts | 51° |
| 2026-05-07 21:49 | 53.62745 | 9.98233 | 50 ft | 106 kts | 50° |
| 2026-05-07 21:49 | 53.63106 | 9.98964 | 51 ft | 51 kts | 50° |
| 2026-05-07 21:49 | 53.63257 | 9.99264 | 53 ft | 25 kts | 57° |
| 2026-05-07 21:49 | 53.63291 | 9.99502 | 50 ft | 11 kts | 94° |
| 2026-05-07 21:50 | 53.63277 | 9.99631 | 50 ft | 8 kts | 101° |
| 2026-05-07 21:50 | 53.63275 | 9.99651 | 50 ft | 0 kts | 101° |
| 2026-05-07 21:51 | 53.63274 | 9.99656 | 50 ft | 3 kts | 99° |
| 2026-05-07 21:51 | 53.63260 | 9.99719 | 50 ft | 6 kts | 132° |
| 2026-05-07 21:51 | 53.63228 | 9.99756 | 50 ft | 6 kts | 150° |
| 2026-05-07 21:52 | 53.63194 | 9.99786 | 50 ft | 5 kts | 153° |
| 2026-05-07 21:52 | 53.63159 | 9.99816 | 50 ft | 7 kts | 153° |
| 2026-05-07 21:52 | 53.63143 | 9.99878 | 50 ft | 5 kts | 81° |
| 2026-05-07 21:52 | 53.63167 | 9.99938 | 50 ft | 6 kts | 51° |
| 2026-05-07 21:53 | 53.63200 | 10.00005 | 51 ft | 9 kts | 50° |
| 2026-05-07 21:53 | 53.63236 | 10.00088 | 51 ft | 8 kts | 62° |
| 2026-05-07 21:53 | 53.63251 | 10.00177 | 51 ft | 6 kts | 81° |
| 2026-05-07 21:53 | 53.63231 | 10.00235 | 49 ft | 7 kts | 154° |
| 2026-05-07 21:54 | 53.63189 | 10.00247 | 51 ft | 6 kts | 176° |
| 2026-05-07 21:54 | 53.63167 | 10.00281 | 47 ft | 5 kts | 108° |
| 2026-05-07 21:54 | 53.63166 | 10.00318 | 51 ft | 3 kts | 88° |
| 2026-05-07 21:54 | 53.63168 | 10.00357 | 51 ft | 2 kts | 86° |
| 2026-05-07 21:55 | 53.63168 | 10.00372 | 51 ft | 0 kts | 86° |